Time;durP1;ratioP1;P1;durP2;ratioP2;P2;SDS_P1;SDS_P2;PMS_P1;PMS_P2;Temp;Humidity;BMP_temperature;BMP_pressure;BME280_temperature;BME280_humidity;BME280_pressure;Samples;Min_cycle;Max_cycle;Signal;HPM_P1;HPM_P2
2023/07/26 00:02:12;;;;;;;4.80;2.57;;;;;;;;;;5079957;28;20468;-62
2023/07/26 00:04:38;;;;;;;3.30;1.70;;;;;;;;;;5079291;28;20455;-61
2023/07/26 00:07:05;;;;;;;3.10;2.23;;;;;;;;;;5078821;28;20988;-63
2023/07/26 00:09:31;;;;;;;3.93;2.50;;;;;;;;;;5079177;28;20473;-62
2023/07/26 00:11:59;;;;;;;4.50;1.90;;;;;;;;;;5079956;28;20502;-62
2023/07/26 00:14:25;;;;;;;7.37;2.30;;;;;;;;;;5072845;28;20533;-62
2023/07/26 00:16:52;;;;;;;4.40;2.40;;;;;;;;;;5079683;28;20543;-62
2023/07/26 00:19:19;;;;;;;5.10;2.40;;;;;;;;;;5079447;28;20889;-62
2023/07/26 00:21:46;;;;;;;1.90;1.70;;;;;;;;;;5079362;28;20837;-62
2023/07/26 00:24:12;;;;;;;2.90;2.63;;;;;;;;;;5078495;28;20460;-62
2023/07/26 00:26:38;;;;;;;4.30;2.37;;;;;;;;;;5079280;28;20517;-62
2023/07/26 00:29:06;;;;;;;3.67;2.27;;;;;;;;;;5079629;28;20507;-61
2023/07/26 00:31:32;;;;;;;4.00;2.40;;;;;;;;;;5079650;28;20555;-61
2023/07/26 00:33:59;;;;;;;3.83;2.33;;;;;;;;;;5069684;28;20472;-62
2023/07/26 00:36:25;;;;;;;3.90;2.33;;;;;;;;;;5078926;28;20488;-61
2023/07/26 00:38:51;;;;;;;8.27;2.20;;;;;;;;;;5078932;28;20530;-62
2023/07/26 00:41:18;;;;;;;4.33;2.10;;;;;;;;;;5079601;28;20788;-62
2023/07/26 00:43:44;;;;;;;5.60;2.50;;;;;;;;;;5079359;28;20486;-61
2023/07/26 00:46:13;;;;;;;6.50;2.90;;;;;;;;;;5079568;28;20448;-62
2023/07/26 00:48:40;;;;;;;4.50;1.93;;;;;;;;;;5079601;28;20462;-61
2023/07/26 00:51:06;;;;;;;1.90;1.73;;;;;;;;;;5079451;28;20570;-62
2023/07/26 00:53:33;;;;;;;3.80;2.33;;;;;;;;;;5078948;28;20535;-61
2023/07/26 00:55:59;;;;;;;4.87;2.57;;;;;;;;;;5079185;28;20510;-61
2023/07/26 00:58:26;;;;;;;2.67;2.00;;;;;;;;;;5079565;28;20463;-61
2023/07/26 01:00:52;;;;;;;3.10;1.90;;;;;;;;;;5079545;28;20487;-62
2023/07/26 01:03:20;;;;;;;7.93;2.20;;;;;;;;;;5079659;28;20895;-62
2023/07/26 01:05:50;;;;;;;4.30;1.90;;;;;;;;;;5081920;28;20471;-61
2023/07/26 01:08:22;;;;;;;2.23;1.67;;;;;;;;;;5082863;28;20451;-61
2023/07/26 01:10:50;;;;;;;4.00;2.50;;;;;;;;;;5083449;28;20455;-61
2023/07/26 01:13:21;;;;;;;4.27;1.80;;;;;;;;;;5083237;28;20500;-62
2023/07/26 01:15:48;;;;;;;6.10;2.67;;;;;;;;;;5083005;28;20519;-61
2023/07/26 01:18:16;;;;;;;6.33;2.20;;;;;;;;;;5083043;28;20475;-61
2023/07/26 01:20:44;;;;;;;3.10;2.53;;;;;;;;;;5082821;28;20491;-62
2023/07/26 01:23:12;;;;;;;6.40;2.47;;;;;;;;;;5082149;28;20458;-61
2023/07/26 01:25:38;;;;;;;7.10;2.80;;;;;;;;;;5082559;28;20487;-62
2023/07/26 01:28:04;;;;;;;3.67;2.20;;;;;;;;;;5082814;28;20440;-62
2023/07/26 01:30:33;;;;;;;3.27;2.30;;;;;;;;;;5082739;28;20523;-62
2023/07/26 01:33:00;;;;;;;3.27;2.50;;;;;;;;;;5082366;28;20522;-62
2023/07/26 01:35:27;;;;;;;4.43;2.17;;;;;;;;;;5082271;28;20661;-62
2023/07/26 01:37:54;;;;;;;3.30;2.20;;;;;;;;;;5081319;28;20922;-62
2023/07/26 01:40:22;;;;;;;5.10;2.87;;;;;;;;;;5082691;28;20482;-62
2023/07/26 01:42:49;;;;;;;9.83;2.60;;;;;;;;;;5082587;28;20511;-63
2023/07/26 01:45:15;;;;;;;4.77;2.40;;;;;;;;;;5082198;28;20491;-62
2023/07/26 01:47:42;;;;;;;4.77;2.80;;;;;;;;;;5082560;28;20498;-63
2023/07/26 01:50:09;;;;;;;6.37;2.80;;;;;;;;;;5081942;28;21048;-62
2023/07/26 01:52:35;;;;;;;2.90;2.60;;;;;;;;;;5081800;28;20534;-62
2023/07/26 01:55:01;;;;;;;13.67;2.93;;;;;;;;;;5081804;28;20452;-62
2023/07/26 01:57:29;;;;;;;4.33;2.57;;;;;;;;;;5082091;28;20458;-62
2023/07/26 01:59:55;;;;;;;5.67;2.73;;;;;;;;;;5081810;28;20527;-62
2023/07/26 02:02:22;;;;;;;3.50;3.20;;;;;;;;;;5082270;28;20476;-62
2023/07/26 02:04:48;;;;;;;4.60;2.93;;;;;;;;;;5081815;28;20539;-62
2023/07/26 02:07:14;;;;;;;6.60;3.10;;;;;;;;;;5081012;28;20969;-62
2023/07/26 02:09:41;;;;;;;4.97;2.33;;;;;;;;;;5076108;28;20460;-62
2023/07/26 02:12:08;;;;;;;5.30;3.20;;;;;;;;;;5081778;28;20522;-62
2023/07/26 02:14:35;;;;;;;4.60;3.20;;;;;;;;;;5081292;28;20462;-62
2023/07/26 02:17:02;;;;;;;7.50;4.10;;;;;;;;;;5081846;28;20491;-61
2023/07/26 02:19:28;;;;;;;3.30;2.73;;;;;;;;;;5081634;28;20447;-61
2023/07/26 02:21:55;;;;;;;3.20;2.90;;;;;;;;;;5081806;28;20468;-61
2023/07/26 02:24:21;;;;;;;4.30;2.70;;;;;;;;;;5080864;28;20727;-61
2023/07/26 02:26:48;;;;;;;5.83;3.43;;;;;;;;;;5081524;28;20462;-62
2023/07/26 02:29:14;;;;;;;5.00;3.03;;;;;;;;;;5082038;28;20940;-61
2023/07/26 02:31:42;;;;;;;5.57;3.30;;;;;;;;;;5081380;28;20527;-62
2023/07/26 02:34:08;;;;;;;7.20;3.20;;;;;;;;;;5080975;28;20486;-61
2023/07/26 02:36:34;;;;;;;4.60;2.90;;;;;;;;;;5081367;28;20448;-61
2023/07/26 02:39:01;;;;;;;3.87;3.00;;;;;;;;;;5080932;28;20940;-62
2023/07/26 02:41:27;;;;;;;6.73;3.57;;;;;;;;;;5081535;28;20487;-62
2023/07/26 02:43:54;;;;;;;3.50;3.20;;;;;;;;;;5080693;28;20527;-61
2023/07/26 02:46:20;;;;;;;7.00;3.10;;;;;;;;;;5081193;28;20515;-61
2023/07/26 02:48:48;;;;;;;3.40;3.03;;;;;;;;;;5081585;28;20523;-61
2023/07/26 02:51:14;;;;;;;4.10;2.93;;;;;;;;;;5081090;28;20452;-63
2023/07/26 02:53:41;;;;;;;4.67;3.40;;;;;;;;;;5080197;28;20805;-62
2023/07/26 02:56:07;;;;;;;5.57;3.43;;;;;;;;;;5080884;28;20528;-62
2023/07/26 02:58:34;;;;;;;3.70;3.27;;;;;;;;;;5081070;28;20447;-62
2023/07/26 03:01:00;;;;;;;5.40;4.03;;;;;;;;;;5080878;28;20953;-62
2023/07/26 03:03:26;;;;;;;8.10;3.37;;;;;;;;;;5080759;28;20443;-62
2023/07/26 03:05:56;;;;;;;4.40;2.90;;;;;;;;;;5079956;28;20459;-62
2023/07/26 03:08:23;;;;;;;4.30;3.47;;;;;;;;;;5080527;28;20991;-61
2023/07/26 03:10:51;;;;;;;5.33;3.43;;;;;;;;;;5081016;28;20519;-62
2023/07/26 03:13:17;;;;;;;7.10;2.90;;;;;;;;;;5080464;28;20511;-61
2023/07/26 03:15:44;;;;;;;3.30;3.00;;;;;;;;;;5080437;28;20452;-62
2023/07/26 03:18:11;;;;;;;3.80;3.00;;;;;;;;;;5080550;28;20463;-62
2023/07/26 03:20:37;;;;;;;3.03;2.70;;;;;;;;;;5078602;28;20478;-62
2023/07/26 03:23:05;;;;;;;3.77;3.13;;;;;;;;;;5079477;28;20570;-62
2023/07/26 03:25:31;;;;;;;4.43;3.30;;;;;;;;;;5079964;28;20471;-62
2023/07/26 03:27:58;;;;;;;3.40;2.87;;;;;;;;;;5080118;28;20456;-62
2023/07/26 03:30:24;;;;;;;8.13;3.73;;;;;;;;;;5080862;28;20507;-62
2023/07/26 03:32:51;;;;;;;4.13;3.20;;;;;;;;;;5080451;28;20572;-62
2023/07/26 03:35:17;;;;;;;5.00;3.20;;;;;;;;;;5079780;28;20538;-62
2023/07/26 03:37:44;;;;;;;3.93;3.53;;;;;;;;;;5078910;28;20563;-62
2023/07/26 03:40:12;;;;;;;3.90;3.13;;;;;;;;;;5080610;28;20468;-62
2023/07/26 03:42:39;;;;;;;4.93;3.30;;;;;;;;;;5070136;28;20471;-62
2023/07/26 03:45:06;;;;;;;3.17;2.87;;;;;;;;;;5079747;28;20460;-62
2023/07/26 03:47:32;;;;;;;4.70;2.47;;;;;;;;;;5080080;28;20555;-62
2023/07/26 03:49:59;;;;;;;4.27;3.27;;;;;;;;;;5080026;28;20487;-62
2023/07/26 03:52:26;;;;;;;2.93;2.73;;;;;;;;;;5080027;28;20476;-61
2023/07/26 03:54:52;;;;;;;4.53;3.80;;;;;;;;;;5079283;28;20490;-62
2023/07/26 03:57:20;;;;;;;3.90;3.20;;;;;;;;;;5079599;28;20567;-62
2023/07/26 03:59:46;;;;;;;3.33;2.80;;;;;;;;;;5079846;28;20471;-62
2023/07/26 04:02:13;;;;;;;4.10;3.17;;;;;;;;;;5079647;28;20789;-62
2023/07/26 04:04:39;;;;;;;5.10;3.10;;;;;;;;;;5079381;28;20483;-62
2023/07/26 04:07:05;;;;;;;3.63;3.30;;;;;;;;;;5078481;28;20495;-62
2023/07/26 04:09:32;;;;;;;5.17;3.33;;;;;;;;;;5079108;28;20511;-62
2023/07/26 04:11:59;;;;;;;8.33;4.30;;;;;;;;;;5079949;28;20555;-62
2023/07/26 04:14:26;;;;;;;4.93;4.43;;;;;;;;;;5079051;28;20452;-62
2023/07/26 04:16:53;;;;;;;10.97;5.80;;;;;;;;;;5079480;28;20864;-62
2023/07/26 04:19:19;;;;;;;9.23;4.40;;;;;;;;;;5079524;28;20519;-62
2023/07/26 04:21:45;;;;;;;7.77;4.60;;;;;;;;;;5077868;28;20452;-62
2023/07/26 04:24:12;;;;;;;6.77;5.33;;;;;;;;;;5076200;28;20471;-62
2023/07/26 04:26:38;;;;;;;8.77;4.80;;;;;;;;;;5078476;28;20519;-63
2023/07/26 04:29:05;;;;;;;5.93;4.20;;;;;;;;;;5078947;28;20938;-62
2023/07/26 04:31:33;;;;;;;8.03;4.80;;;;;;;;;;5077933;28;20456;-62
2023/07/26 04:33:59;;;;;;;7.43;5.27;;;;;;;;;;5078476;28;20574;-62
2023/07/26 04:36:26;;;;;;;5.00;4.57;;;;;;;;;;5077847;28;20531;-62
2023/07/26 04:38:52;;;;;;;5.27;4.43;;;;;;;;;;5080857;28;20484;-62
2023/07/26 04:41:18;;;;;;;5.77;4.80;;;;;;;;;;5083376;28;20538;-62
2023/07/26 04:43:45;;;;;;;5.23;4.73;;;;;;;;;;5083043;28;20511;-62
2023/07/26 04:46:11;;;;;;;6.33;4.67;;;;;;;;;;5082386;28;20513;-62
2023/07/26 04:48:39;;;;;;;6.80;4.47;;;;;;;;;;5083321;28;20444;-61
2023/07/26 04:51:05;;;;;;;6.43;4.37;;;;;;;;;;5083004;28;20480;-61
2023/07/26 04:53:32;;;;;;;5.40;4.30;;;;;;;;;;5081276;28;20487;-61
2023/07/26 04:55:58;;;;;;;4.77;4.20;;;;;;;;;;5082703;28;20522;-61
2023/07/26 04:58:25;;;;;;;5.37;4.33;;;;;;;;;;5082613;28;20497;-62
2023/07/26 05:00:51;;;;;;;5.60;4.97;;;;;;;;;;5081926;28;20466;-61
2023/07/26 05:03:17;;;;;;;11.17;4.60;;;;;;;;;;5082348;28;20454;-62
2023/07/26 05:05:48;;;;;;;11.00;4.90;;;;;;;;;;5068855;28;20570;-61
2023/07/26 05:08:15;;;;;;;5.70;5.20;;;;;;;;;;5081621;28;20491;-62
2023/07/26 05:10:41;;;;;;;5.70;4.53;;;;;;;;;;5082309;28;20948;-61
2023/07/26 05:13:08;;;;;;;4.60;3.80;;;;;;;;;;5082148;28;20514;-62
2023/07/26 05:15:34;;;;;;;9.13;4.50;;;;;;;;;;5081486;28;20468;-62
2023/07/26 05:18:00;;;;;;;7.87;4.90;;;;;;;;;;5082153;28;20530;-62
2023/07/26 05:20:27;;;;;;;9.97;4.67;;;;;;;;;;5074527;28;21259;-62
2023/07/26 05:22:54;;;;;;;9.70;4.90;;;;;;;;;;5080870;28;20467;-62
2023/07/26 05:25:21;;;;;;;5.00;4.50;;;;;;;;;;5081601;28;20462;-62
2023/07/26 05:27:47;;;;;;;4.93;4.40;;;;;;;;;;5082365;28;20463;-62
2023/07/26 05:30:14;;;;;;;5.13;4.40;;;;;;;;;;5081476;28;20471;-62
2023/07/26 05:32:40;;;;;;;6.60;4.47;;;;;;;;;;5081251;28;20522;-62
2023/07/26 05:35:07;;;;;;;4.80;4.00;;;;;;;;;;5081717;28;20836;-62
2023/07/26 05:37:34;;;;;;;7.03;4.40;;;;;;;;;;5080135;28;20515;-62
2023/07/26 05:40:02;;;;;;;6.47;4.73;;;;;;;;;;5081153;28;20497;-62
2023/07/26 05:42:29;;;;;;;5.13;4.37;;;;;;;;;;5081492;28;20440;-62
2023/07/26 05:44:55;;;;;;;7.77;4.50;;;;;;;;;;5079737;28;20535;-62
2023/07/26 05:47:21;;;;;;;7.73;4.90;;;;;;;;;;5081735;28;20535;-62
2023/07/26 05:49:48;;;;;;;5.43;4.47;;;;;;;;;;5081305;28;20515;-62
2023/07/26 05:52:14;;;;;;;5.83;4.70;;;;;;;;;;5080837;28;20539;-61
2023/07/26 05:54:40;;;;;;;5.43;4.87;;;;;;;;;;5080481;28;21195;-61
2023/07/26 05:57:08;;;;;;;11.27;4.73;;;;;;;;;;5081218;28;20528;-62
2023/07/26 05:59:35;;;;;;;4.23;3.83;;;;;;;;;;5080584;28;21008;-62
2023/07/26 06:02:01;;;;;;;8.87;4.00;;;;;;;;;;5080511;28;21284;-62
2023/07/26 06:04:28;;;;;;;5.57;3.77;;;;;;;;;;5079779;28;20632;-62
2023/07/26 06:06:55;;;;;;;5.23;3.83;;;;;;;;;;5079896;28;20459;-63
2023/07/26 06:09:21;;;;;;;3.63;3.23;;;;;;;;;;5079852;28;20485;-62
2023/07/26 06:11:48;;;;;;;3.97;3.50;;;;;;;;;;5081139;28;20440;-63
2023/07/26 06:14:16;;;;;;;5.40;3.40;;;;;;;;;;5080456;28;20555;-62
2023/07/26 06:16:42;;;;;;;5.00;3.23;;;;;;;;;;5080493;28;20509;-62
2023/07/26 06:19:09;;;;;;;4.73;3.80;;;;;;;;;;5086029;28;20472;-62
2023/07/26 06:21:36;;;;;;;5.27;3.40;;;;;;;;;;5080302;28;20454;-62
2023/07/26 06:24:02;;;;;;;6.20;3.43;;;;;;;;;;5079319;28;20448;-62
2023/07/26 06:26:29;;;;;;;5.10;2.80;;;;;;;;;;5080728;28;20935;-63
2023/07/26 06:28:55;;;;;;;6.90;3.57;;;;;;;;;;5080719;28;20471;-63
2023/07/26 06:31:23;;;;;;;4.60;3.20;;;;;;;;;;5080072;28;20443;-62
2023/07/26 06:33:49;;;;;;;3.47;3.10;;;;;;;;;;5079916;28;20539;-62
2023/07/26 06:36:15;;;;;;;4.80;3.10;;;;;;;;;;5080209;28;20486;-62
2023/07/26 06:38:42;;;;;;;4.77;2.97;;;;;;;;;;5079803;28;20490;-63
2023/07/26 06:41:08;;;;;;;11.20;3.30;;;;;;;;;;5080227;28;20543;-63
2023/07/26 06:43:35;;;;;;;3.80;2.90;;;;;;;;;;5080066;28;20992;-63
2023/07/26 06:46:02;;;;;;;3.50;3.20;;;;;;;;;;5079338;28;20447;-63
2023/07/26 06:48:29;;;;;;;4.20;3.40;;;;;;;;;;5080590;28;20525;-62
2023/07/26 06:50:56;;;;;;;4.57;4.10;;;;;;;;;;5080028;28;20460;-63
2023/07/26 06:53:22;;;;;;;5.70;3.77;;;;;;;;;;5078992;28;20523;-62
2023/07/26 06:55:49;;;;;;;4.27;3.50;;;;;;;;;;5079867;28;20653;-63
2023/07/26 06:58:15;;;;;;;4.30;3.20;;;;;;;;;;5079567;28;20476;-62
2023/07/26 07:00:41;;;;;;;5.20;3.20;;;;;;;;;;5077787;28;20531;-62
2023/07/26 07:03:08;;;;;;;4.80;3.30;;;;;;;;;;5079832;28;20432;-62
2023/07/26 07:05:36;;;;;;;4.93;3.07;;;;;;;;;;5078825;28;20495;-62
2023/07/26 07:08:02;;;;;;;5.60;3.53;;;;;;;;;;5069041;28;20456;-62
2023/07/26 07:10:29;;;;;;;6.97;3.30;;;;;;;;;;5077180;28;20516;-62
2023/07/26 07:12:55;;;;;;;3.63;2.50;;;;;;;;;;5071580;28;20468;-63
2023/07/26 07:15:22;;;;;;;5.83;3.23;;;;;;;;;;5072107;28;20451;-63
2023/07/26 07:17:48;;;;;;;7.23;3.80;;;;;;;;;;5071947;28;20472;-63
2023/07/26 07:20:15;;;;;;;5.83;3.03;;;;;;;;;;5069663;28;20453;-63
2023/07/26 07:22:43;;;;;;;4.50;3.53;;;;;;;;;;5074418;28;20458;-62
2023/07/26 07:25:10;;;;;;;4.77;3.20;;;;;;;;;;5078757;28;20530;-62
2023/07/26 07:27:36;;;;;;;4.57;2.40;;;;;;;;;;5073999;28;20467;-62
2023/07/26 07:30:04;;;;;;;6.80;3.40;;;;;;;;;;5067518;28;20470;-62
2023/07/26 07:32:30;;;;;;;3.37;2.97;;;;;;;;;;5079289;28;20444;-62
2023/07/26 07:34:56;;;;;;;4.40;3.20;;;;;;;;;;5076135;28;20498;-62
2023/07/26 07:37:23;;;;;;;5.40;2.97;;;;;;;;;;5077012;28;21070;-62
2023/07/26 07:39:50;;;;;;;7.67;3.33;;;;;;;;;;5078072;28;20471;-62
2023/07/26 07:42:17;;;;;;;6.60;3.57;;;;;;;;;;5079653;28;20472;-62
2023/07/26 07:44:43;;;;;;;4.80;2.93;;;;;;;;;;5078293;28;20541;-62
2023/07/26 07:47:10;;;;;;;3.70;2.60;;;;;;;;;;5079057;28;20463;-62
2023/07/26 07:49:36;;;;;;;4.03;2.63;;;;;;;;;;5078957;28;20483;-62
2023/07/26 07:52:02;;;;;;;3.87;2.87;;;;;;;;;;5078239;28;20822;-62
2023/07/26 07:54:29;;;;;;;3.70;2.57;;;;;;;;;;5075364;28;20594;-62
2023/07/26 07:56:57;;;;;;;3.37;2.43;;;;;;;;;;5079057;28;20452;-62
2023/07/26 07:59:23;;;;;;;4.10;2.70;;;;;;;;;;5078257;28;20520;-62
2023/07/26 08:01:49;;;;;;;5.60;2.50;;;;;;;;;;5078708;28;20479;-62
2023/07/26 08:04:16;;;;;;;4.10;2.43;;;;;;;;;;5078359;28;20471;-62
2023/07/26 08:06:42;;;;;;;4.50;2.50;;;;;;;;;;5077398;28;20507;-62
2023/07/26 08:09:08;;;;;;;4.33;2.77;;;;;;;;;;5066720;28;20461;-62
2023/07/26 08:11:35;;;;;;;4.33;2.33;;;;;;;;;;5078866;28;20535;-62
2023/07/26 08:14:03;;;;;;;3.00;1.83;;;;;;;;;;5076786;28;20961;-62
2023/07/26 08:16:29;;;;;;;3.40;2.33;;;;;;;;;;5078298;28;20452;-62
2023/07/26 08:18:57;;;;;;;4.07;2.50;;;;;;;;;;5077659;28;21027;-62
2023/07/26 08:21:24;;;;;;;3.80;2.10;;;;;;;;;;5074582;28;21130;-62
2023/07/26 08:23:51;;;;;;;3.90;2.90;;;;;;;;;;5076176;28;20583;-62
2023/07/26 08:26:17;;;;;;;3.13;1.97;;;;;;;;;;5072470;28;20672;-62
2023/07/26 08:28:44;;;;;;;3.83;2.17;;;;;;;;;;5077977;28;20968;-62
2023/07/26 08:31:12;;;;;;;3.07;1.70;;;;;;;;;;5075709;28;20518;-62
2023/07/26 08:33:38;;;;;;;4.67;2.67;;;;;;;;;;5076703;28;20467;-62
2023/07/26 08:36:05;;;;;;;6.03;2.10;;;;;;;;;;5077078;28;20463;-62
2023/07/26 08:38:33;;;;;;;5.93;2.30;;;;;;;;;;5077564;28;20479;-62
2023/07/26 08:41:00;;;;;;;3.40;1.93;;;;;;;;;;5067881;28;20463;-62
2023/07/26 08:43:31;;;;;;;4.33;2.20;;;;;;;;;;5077108;28;20701;-62
2023/07/26 08:45:58;;;;;;;3.40;2.40;;;;;;;;;;5078286;28;20501;-62
2023/07/26 08:48:26;;;;;;;4.27;2.20;;;;;;;;;;5077765;28;20563;-62
2023/07/26 08:50:52;;;;;;;3.10;2.33;;;;;;;;;;5070532;28;20482;-62
2023/07/26 08:53:19;;;;;;;4.90;2.93;;;;;;;;;;5077712;28;20639;-62
2023/07/26 08:55:46;;;;;;;4.20;2.10;;;;;;;;;;5078609;28;20448;-63
2023/07/26 08:58:12;;;;;;;4.17;2.70;;;;;;;;;;5073243;28;20464;-62
2023/07/26 09:00:39;;;;;;;2.77;2.03;;;;;;;;;;5076606;28;20568;-62
2023/07/26 09:03:07;;;;;;;4.40;1.90;;;;;;;;;;5077861;28;20544;-62
2023/07/26 09:05:35;;;;;;;2.60;2.07;;;;;;;;;;5076185;28;20511;-62
2023/07/26 09:08:01;;;;;;;2.60;1.50;;;;;;;;;;5077805;28;20530;-62
2023/07/26 09:10:28;;;;;;;2.33;0.97;;;;;;;;;;5077574;28;20487;-62
2023/07/26 09:13:07;;;;;;;3.77;1.67;;;;;;;;;;5077558;28;20478;-62
2023/07/26 09:15:34;;;;;;;10.63;1.30;;;;;;;;;;5077377;28;20684;-62
2023/07/26 09:18:02;;;;;;;2.73;1.77;;;;;;;;;;5077800;28;20486;-62
2023/07/26 09:20:28;;;;;;;1.70;1.30;;;;;;;;;;5076308;28;20883;-62
2023/07/26 09:23:00;;;;;;;3.60;1.67;;;;;;;;;;5077665;28;20975;-62
2023/07/26 09:25:31;;;;;;;2.20;1.90;;;;;;;;;;5079138;28;20657;-63
2023/07/26 09:27:58;;;;;;;3.50;1.40;;;;;;;;;;5080743;28;20447;-63
2023/07/26 09:30:25;;;;;;;2.17;1.60;;;;;;;;;;5073763;28;20491;-63
2023/07/26 09:32:52;;;;;;;2.30;1.40;;;;;;;;;;5078297;28;20532;-63
2023/07/26 09:35:19;;;;;;;2.40;1.90;;;;;;;;;;5080668;28;20522;-63
2023/07/26 09:37:45;;;;;;;2.87;1.50;;;;;;;;;;5080338;28;21161;-62
2023/07/26 09:40:13;;;;;;;1.90;1.40;;;;;;;;;;5080969;28;20521;-63
2023/07/26 09:42:44;;;;;;;2.13;1.20;;;;;;;;;;5080960;28;21115;-63
2023/07/26 09:45:14;;;;;;;2.00;1.40;;;;;;;;;;5073932;28;20539;-63
2023/07/26 09:47:40;;;;;;;3.07;1.60;;;;;;;;;;5080860;28;20542;-62
2023/07/26 09:50:07;;;;;;;2.77;1.70;;;;;;;;;;5080594;28;20451;-63
2023/07/26 09:52:33;;;;;;;3.00;1.47;;;;;;;;;;5080049;28;20483;-63
2023/07/26 09:55:01;;;;;;;3.73;1.50;;;;;;;;;;5080604;28;20543;-63
2023/07/26 09:57:31;;;;;;;2.20;1.33;;;;;;;;;;5080328;28;20444;-65
2023/07/26 10:00:00;;;;;;;2.80;1.90;;;;;;;;;;5081335;28;20452;-63
2023/07/26 10:02:27;;;;;;;2.10;1.60;;;;;;;;;;5080141;28;20459;-62
2023/07/26 10:04:55;;;;;;;2.10;1.50;;;;;;;;;;5079826;28;20480;-62
2023/07/26 10:07:23;;;;;;;1.83;1.73;;;;;;;;;;5079896;28;20459;-62
2023/07/26 10:09:51;;;;;;;2.23;1.53;;;;;;;;;;5080801;28;20456;-62
2023/07/26 10:12:20;;;;;;;2.77;2.07;;;;;;;;;;5080226;28;20504;-63
2023/07/26 10:14:48;;;;;;;2.20;1.60;;;;;;;;;;5080321;28;20579;-63
2023/07/26 10:17:16;;;;;;;2.30;1.43;;;;;;;;;;5080598;28;20448;-62
2023/07/26 10:19:45;;;;;;;3.97;2.00;;;;;;;;;;5079472;28;20483;-63
2023/07/26 10:22:12;;;;;;;4.00;2.00;;;;;;;;;;5079810;28;20545;-63
2023/07/26 10:24:41;;;;;;;2.47;1.70;;;;;;;;;;5078883;28;20452;-62
2023/07/26 10:27:08;;;;;;;1.93;1.40;;;;;;;;;;5071592;28;20483;-63
2023/07/26 10:29:35;;;;;;;2.23;1.43;;;;;;;;;;5079284;28;20511;-62
2023/07/26 10:32:05;;;;;;;3.53;1.90;;;;;;;;;;5079515;28;20511;-62
2023/07/26 10:34:31;;;;;;;2.43;1.60;;;;;;;;;;5067461;28;20496;-62
2023/07/26 10:36:58;;;;;;;2.77;1.80;;;;;;;;;;5079583;28;20554;-62
2023/07/26 10:39:33;;;;;;;2.57;2.03;;;;;;;;;;5079204;28;20480;-61
2023/07/26 10:42:00;;;;;;;2.37;1.77;;;;;;;;;;5079156;28;20505;-61
2023/07/26 10:44:27;;;;;;;2.30;1.90;;;;;;;;;;5079954;28;20555;-61
2023/07/26 10:46:54;;;;;;;6.23;2.93;;;;;;;;;;5080034;28;20960;-61
2023/07/26 10:49:28;;;;;;;4.07;2.17;;;;;;;;;;5079770;28;20448;-62
2023/07/26 10:52:02;;;;;;;2.70;2.33;;;;;;;;;;5079600;28;20530;-62
2023/07/26 10:54:36;;;;;;;2.43;2.10;;;;;;;;;;5078554;28;20486;-61
2023/07/26 10:57:19;;;;;;;3.87;2.70;;;;;;;;;;5073976;28;20457;-61
2023/07/26 10:59:50;;;;;;;3.10;2.80;;;;;;;;;;5079998;28;20502;-61
2023/07/26 11:02:16;;;;;;;4.40;2.70;;;;;;;;;;5079533;28;20479;-61
2023/07/26 11:04:44;;;;;;;2.97;1.93;;;;;;;;;;5078407;28;20440;-63
2023/07/26 11:07:12;;;;;;;3.13;2.23;;;;;;;;;;5078349;28;20463;-62
2023/07/26 11:09:39;;;;;;;2.47;2.27;;;;;;;;;;5079117;28;20513;-62
2023/07/26 11:12:11;;;;;;;3.07;2.00;;;;;;;;;;5079221;28;20459;-62
2023/07/26 11:14:37;;;;;;;2.47;2.00;;;;;;;;;;5066443;28;20483;-62
2023/07/26 11:17:09;;;;;;;3.93;2.30;;;;;;;;;;5079123;28;20509;-63
2023/07/26 11:19:45;;;;;;;2.90;2.53;;;;;;;;;;5078137;28;20475;-63
2023/07/26 11:22:12;;;;;;;3.97;2.20;;;;;;;;;;5078912;28;20610;-63
2023/07/26 11:24:38;;;;;;;7.03;1.80;;;;;;;;;;5075941;28;20448;-63
2023/07/26 11:27:06;;;;;;;4.10;2.00;;;;;;;;;;5077285;28;20459;-62
2023/07/26 11:29:33;;;;;;;4.73;2.30;;;;;;;;;;5078894;28;20455;-61
2023/07/26 11:31:59;;;;;;;2.77;2.10;;;;;;;;;;5079120;28;20467;-62
2023/07/26 11:34:26;;;;;;;3.60;2.40;;;;;;;;;;5078249;28;20483;-61
2023/07/26 11:37:05;;;;;;;3.50;2.77;;;;;;;;;;5078349;28;20471;-63
2023/07/26 11:39:31;;;;;;;4.60;2.60;;;;;;;;;;5078344;28;20464;-63
2023/07/26 11:41:58;;;;;;;3.53;2.43;;;;;;;;;;5078231;28;20444;-63
2023/07/26 11:44:25;;;;;;;3.83;2.30;;;;;;;;;;5072192;28;20456;-62
2023/07/26 11:46:51;;;;;;;4.87;2.80;;;;;;;;;;5074693;28;20444;-63
2023/07/26 11:49:21;;;;;;;2.90;2.20;;;;;;;;;;5078383;28;20479;-62
2023/07/26 11:51:48;;;;;;;3.53;2.10;;;;;;;;;;5077677;28;20489;-62
2023/07/26 11:54:16;;;;;;;3.53;2.33;;;;;;;;;;5078229;28;20548;-62
2023/07/26 11:56:43;;;;;;;4.03;2.80;;;;;;;;;;5077976;28;20452;-62
2023/07/26 11:59:10;;;;;;;3.80;2.80;;;;;;;;;;5076496;28;20482;-62
2023/07/26 12:01:37;;;;;;;3.23;2.53;;;;;;;;;;5079056;28;20442;-62
2023/07/26 12:04:09;;;;;;;5.77;2.47;;;;;;;;;;5076959;28;20458;-62
2023/07/26 12:06:35;;;;;;;3.90;2.90;;;;;;;;;;5071315;28;20459;-62
2023/07/26 12:09:09;;;;;;;4.37;2.47;;;;;;;;;;5077877;28;20472;-62
2023/07/26 12:11:37;;;;;;;4.20;2.97;;;;;;;;;;5078314;28;20444;-63
2023/07/26 12:14:03;;;;;;;3.60;3.00;;;;;;;;;;5078448;28;20764;-63
2023/07/26 12:16:31;;;;;;;5.77;2.57;;;;;;;;;;5079048;28;20796;-62
2023/07/26 12:19:00;;;;;;;4.53;2.77;;;;;;;;;;5077151;28;20456;-62
2023/07/26 12:21:27;;;;;;;2.70;2.27;;;;;;;;;;5077947;28;20558;-61
2023/07/26 12:23:54;;;;;;;5.17;3.00;;;;;;;;;;5077720;28;20459;-61
2023/07/26 12:26:21;;;;;;;4.90;3.50;;;;;;;;;;5078032;28;20618;-62
2023/07/26 12:28:50;;;;;;;5.13;2.13;;;;;;;;;;5078941;28;20462;-62
2023/07/26 12:31:17;;;;;;;4.40;2.63;;;;;;;;;;5077815;28;20545;-63
2023/07/26 12:33:54;;;;;;;3.80;2.30;;;;;;;;;;5077618;28;20689;-63
2023/07/26 12:36:20;;;;;;;2.43;1.80;;;;;;;;;;5072141;28;20479;-62
2023/07/26 12:38:47;;;;;;;2.30;2.00;;;;;;;;;;5078261;28;20459;-62
2023/07/26 12:41:15;;;;;;;3.43;2.50;;;;;;;;;;5078272;28;20440;-62
2023/07/26 12:43:42;;;;;;;2.63;1.70;;;;;;;;;;5078030;28;20456;-62
2023/07/26 12:46:09;;;;;;;2.00;1.70;;;;;;;;;;5078222;28;20440;-62
2023/07/26 12:48:36;;;;;;;2.50;2.00;;;;;;;;;;5077997;28;20455;-62
2023/07/26 12:51:02;;;;;;;1.93;1.67;;;;;;;;;;5078751;28;20455;-62
2023/07/26 12:53:29;;;;;;;3.40;2.30;;;;;;;;;;5078089;28;20476;-62
2023/07/26 12:55:55;;;;;;;2.57;1.83;;;;;;;;;;5077645;28;20566;-62
2023/07/26 12:58:21;;;;;;;3.10;1.97;;;;;;;;;;5069457;28;20482;-61
2023/07/26 13:00:48;;;;;;;3.20;1.97;;;;;;;;;;5082176;28;20444;-61
2023/07/26 13:03:16;;;;;;;4.83;2.03;;;;;;;;;;5081938;28;20507;-61
2023/07/26 13:05:43;;;;;;;2.73;2.40;;;;;;;;;;5077534;28;20487;-62
2023/07/26 13:08:09;;;;;;;3.73;2.20;;;;;;;;;;5081508;28;20452;-62
2023/07/26 13:10:35;;;;;;;3.43;2.10;;;;;;;;;;5081403;28;20459;-62
2023/07/26 13:13:03;;;;;;;2.53;2.30;;;;;;;;;;5070289;28;20480;-62
2023/07/26 13:15:29;;;;;;;3.90;2.00;;;;;;;;;;5081477;28;20483;-62
2023/07/26 13:17:56;;;;;;;2.90;2.40;;;;;;;;;;5081507;28;20505;-62
2023/07/26 13:20:24;;;;;;;2.83;2.30;;;;;;;;;;5080693;28;20448;-62
2023/07/26 13:22:51;;;;;;;3.00;2.20;;;;;;;;;;5081338;28;20444;-62
2023/07/26 13:25:17;;;;;;;2.97;2.40;;;;;;;;;;5080442;28;20517;-62
2023/07/26 13:27:44;;;;;;;4.30;2.20;;;;;;;;;;5081866;28;20501;-61
2023/07/26 13:30:11;;;;;;;3.77;1.90;;;;;;;;;;5081504;28;20455;-62
2023/07/26 13:32:38;;;;;;;3.67;2.47;;;;;;;;;;5080737;28;20478;-61
2023/07/26 13:35:20;;;;;;;4.70;2.37;;;;;;;;;;5079092;28;20484;-61
2023/07/26 13:37:48;;;;;;;3.30;2.30;;;;;;;;;;5073210;28;20483;-61
2023/07/26 13:40:15;;;;;;;2.50;2.30;;;;;;;;;;5080652;28;20875;-61
2023/07/26 13:42:48;;;;;;;2.80;2.40;;;;;;;;;;5081693;28;20443;-62
2023/07/26 13:45:16;;;;;;;3.77;2.70;;;;;;;;;;5081093;28;20448;-61
2023/07/26 13:47:44;;;;;;;5.40;2.60;;;;;;;;;;5080821;28;20462;-62
2023/07/26 13:50:12;;;;;;;3.13;2.00;;;;;;;;;;5081480;28;20459;-62
2023/07/26 13:52:42;;;;;;;3.93;2.13;;;;;;;;;;5080998;28;20451;-62
2023/07/26 13:55:10;;;;;;;6.60;2.90;;;;;;;;;;5079696;28;21025;-62
2023/07/26 13:57:37;;;;;;;4.03;2.80;;;;;;;;;;5076727;28;20483;-61
2023/07/26 14:00:04;;;;;;;2.23;2.00;;;;;;;;;;5073591;28;20448;-62
2023/07/26 14:02:30;;;;;;;3.70;2.50;;;;;;;;;;5080865;28;20458;-62
2023/07/26 14:04:56;;;;;;;2.63;2.13;;;;;;;;;;5080888;28;20484;-62
2023/07/26 14:07:23;;;;;;;2.60;2.17;;;;;;;;;;5079809;28;20528;-62
2023/07/26 14:09:54;;;;;;;2.53;1.80;;;;;;;;;;5080271;28;20451;-62
2023/07/26 14:12:22;;;;;;;3.50;2.43;;;;;;;;;;5071329;28;20466;-61
2023/07/26 14:14:48;;;;;;;2.60;2.00;;;;;;;;;;5080390;28;20512;-62
2023/07/26 14:17:14;;;;;;;3.87;2.20;;;;;;;;;;5080350;28;20451;-62
2023/07/26 14:19:41;;;;;;;2.47;2.07;;;;;;;;;;5081395;28;20513;-62
2023/07/26 14:22:08;;;;;;;2.97;2.53;;;;;;;;;;5080594;28;20535;-61
2023/07/26 14:24:34;;;;;;;3.07;2.50;;;;;;;;;;5078885;28;20495;-62
2023/07/26 14:27:00;;;;;;;2.57;2.17;;;;;;;;;;5080781;28;20474;-61
2023/07/26 14:29:29;;;;;;;4.60;2.53;;;;;;;;;;5081269;28;20479;-61
2023/07/26 14:31:56;;;;;;;3.63;2.23;;;;;;;;;;5070212;28;20448;-64
2023/07/26 14:34:22;;;;;;;2.30;1.83;;;;;;;;;;5080528;28;20860;-61
2023/07/26 14:36:49;;;;;;;6.40;2.30;;;;;;;;;;5080234;28;21055;-61
2023/07/26 14:39:15;;;;;;;3.50;2.20;;;;;;;;;;5079715;28;20452;-61
2023/07/26 14:41:42;;;;;;;4.33;2.60;;;;;;;;;;5081131;28;20447;-62
2023/07/26 14:44:08;;;;;;;4.10;2.77;;;;;;;;;;5080016;28;21023;-62